sensor_id;sensor_type;location;lat;lon;timestamp;temperature;humidity
9941;DHT22;5009;50.656;7.188;2023-08-06T00:00:07;17.00;99.90
9941;DHT22;5009;50.656;7.188;2023-08-06T00:02:33;16.90;99.90
9941;DHT22;5009;50.656;7.188;2023-08-06T00:04:59;16.90;99.90
9941;DHT22;5009;50.656;7.188;2023-08-06T00:07:25;17.00;99.90
9941;DHT22;5009;50.656;7.188;2023-08-06T00:09:50;17.00;99.90
9941;DHT22;5009;50.656;7.188;2023-08-06T00:12:16;17.00;99.90
9941;DHT22;5009;50.656;7.188;2023-08-06T00:14:41;16.80;99.90
9941;DHT22;5009;50.656;7.188;2023-08-06T00:17:07;16.90;99.90
9941;DHT22;5009;50.656;7.188;2023-08-06T00:19:33;16.80;99.90
9941;DHT22;5009;50.656;7.188;2023-08-06T00:21:59;16.70;99.90
9941;DHT22;5009;50.656;7.188;2023-08-06T00:24:24;16.80;99.90
9941;DHT22;5009;50.656;7.188;2023-08-06T00:26:50;16.70;99.90
9941;DHT22;5009;50.656;7.188;2023-08-06T00:29:15;16.80;99.90
9941;DHT22;5009;50.656;7.188;2023-08-06T00:31:41;16.80;99.90
9941;DHT22;5009;50.656;7.188;2023-08-06T00:34:06;16.70;99.90
9941;DHT22;5009;50.656;7.188;2023-08-06T00:36:32;16.60;99.90
9941;DHT22;5009;50.656;7.188;2023-08-06T00:38:58;16.60;99.90
9941;DHT22;5009;50.656;7.188;2023-08-06T00:41:23;16.70;99.90
9941;DHT22;5009;50.656;7.188;2023-08-06T00:43:49;16.60;99.90
9941;DHT22;5009;50.656;7.188;2023-08-06T00:46:14;16.60;99.90
9941;DHT22;5009;50.656;7.188;2023-08-06T00:48:41;16.60;99.90
9941;DHT22;5009;50.656;7.188;2023-08-06T00:51:09;16.60;99.90
9941;DHT22;5009;50.656;7.188;2023-08-06T00:53:35;16.70;99.90
9941;DHT22;5009;50.656;7.188;2023-08-06T00:56:02;16.60;99.90
9941;DHT22;5009;50.656;7.188;2023-08-06T00:58:28;16.70;99.90
9941;DHT22;5009;50.656;7.188;2023-08-06T01:00:54;16.60;99.90
9941;DHT22;5009;50.656;7.188;2023-08-06T01:03:19;16.60;99.90
9941;DHT22;5009;50.656;7.188;2023-08-06T01:05:45;16.50;99.90
9941;DHT22;5009;50.656;7.188;2023-08-06T01:08:44;16.50;99.90
9941;DHT22;5009;50.656;7.188;2023-08-06T01:14:30;16.60;99.90
9941;DHT22;5009;50.656;7.188;2023-08-06T01:16:59;16.60;99.90
9941;DHT22;5009;50.656;7.188;2023-08-06T01:19:24;16.60;99.90
9941;DHT22;5009;50.656;7.188;2023-08-06T01:21:50;16.50;99.90
9941;DHT22;5009;50.656;7.188;2023-08-06T01:24:16;16.50;99.90
9941;DHT22;5009;50.656;7.188;2023-08-06T01:29:45;16.50;99.90
9941;DHT22;5009;50.656;7.188;2023-08-06T01:32:08;16.50;99.90
9941;DHT22;5009;50.656;7.188;2023-08-06T01:34:39;16.40;99.90
9941;DHT22;5009;50.656;7.188;2023-08-06T01:37:06;16.40;99.90
9941;DHT22;5009;50.656;7.188;2023-08-06T01:39:33;16.40;99.90
9941;DHT22;5009;50.656;7.188;2023-08-06T01:41:59;16.30;99.90
9941;DHT22;5009;50.656;7.188;2023-08-06T01:44:24;16.40;99.90
9941;DHT22;5009;50.656;7.188;2023-08-06T01:46:50;16.40;99.90
9941;DHT22;5009;50.656;7.188;2023-08-06T01:49:15;16.40;99.90
9941;DHT22;5009;50.656;7.188;2023-08-06T01:51:41;16.40;99.90
9941;DHT22;5009;50.656;7.188;2023-08-06T01:54:06;16.30;99.90
9941;DHT22;5009;50.656;7.188;2023-08-06T01:56:32;16.30;99.90
9941;DHT22;5009;50.656;7.188;2023-08-06T01:58:57;16.30;99.90
9941;DHT22;5009;50.656;7.188;2023-08-06T03:01:01;16.00;99.90
9941;DHT22;5009;50.656;7.188;2023-08-06T03:03:29;16.10;99.90
9941;DHT22;5009;50.656;7.188;2023-08-06T03:05:54;16.00;99.90
9941;DHT22;5009;50.656;7.188;2023-08-06T03:08:20;16.00;99.90
9941;DHT22;5009;50.656;7.188;2023-08-06T03:10:51;16.00;99.90
9941;DHT22;5009;50.656;7.188;2023-08-06T03:13:18;16.00;99.90
9941;DHT22;5009;50.656;7.188;2023-08-06T03:15:53;16.00;99.90
9941;DHT22;5009;50.656;7.188;2023-08-06T03:18:19;16.00;99.90
9941;DHT22;5009;50.656;7.188;2023-08-06T03:20:45;16.00;99.90
9941;DHT22;5009;50.656;7.188;2023-08-06T03:23:11;15.90;99.90
9941;DHT22;5009;50.656;7.188;2023-08-06T03:25:36;16.00;99.90
9941;DHT22;5009;50.656;7.188;2023-08-06T03:28:02;16.00;99.90
9941;DHT22;5009;50.656;7.188;2023-08-06T03:30:27;16.10;99.90
9941;DHT22;5009;50.656;7.188;2023-08-06T03:32:53;16.10;99.90
9941;DHT22;5009;50.656;7.188;2023-08-06T03:35:19;16.00;99.90
9941;DHT22;5009;50.656;7.188;2023-08-06T03:37:44;16.10;99.90
9941;DHT22;5009;50.656;7.188;2023-08-06T03:40:10;16.10;99.90
9941;DHT22;5009;50.656;7.188;2023-08-06T03:42:35;16.10;99.90
9941;DHT22;5009;50.656;7.188;2023-08-06T03:45:01;16.10;99.90
9941;DHT22;5009;50.656;7.188;2023-08-06T03:47:27;16.10;99.90
9941;DHT22;5009;50.656;7.188;2023-08-06T03:49:52;16.20;99.90
9941;DHT22;5009;50.656;7.188;2023-08-06T03:52:18;16.10;99.90
9941;DHT22;5009;50.656;7.188;2023-08-06T03:54:43;16.10;99.90
9941;DHT22;5009;50.656;7.188;2023-08-06T03:57:09;16.10;99.90
9941;DHT22;5009;50.656;7.188;2023-08-06T03:59:35;16.10;99.90
9941;DHT22;5009;50.656;7.188;2023-08-06T04:02:01;16.10;99.90
9941;DHT22;5009;50.656;7.188;2023-08-06T04:04:27;16.10;99.90
9941;DHT22;5009;50.656;7.188;2023-08-06T04:06:53;16.20;99.90
9941;DHT22;5009;50.656;7.188;2023-08-06T04:09:18;16.20;99.90
9941;DHT22;5009;50.656;7.188;2023-08-06T04:11:44;16.10;99.90
9941;DHT22;5009;50.656;7.188;2023-08-06T04:14:10;16.10;99.90
9941;DHT22;5009;50.656;7.188;2023-08-06T04:16:35;16.00;99.90
9941;DHT22;5009;50.656;7.188;2023-08-06T04:19:01;16.10;99.90
9941;DHT22;5009;50.656;7.188;2023-08-06T04:21:27;16.10;99.90
9941;DHT22;5009;50.656;7.188;2023-08-06T04:23:52;16.00;99.90
9941;DHT22;5009;50.656;7.188;2023-08-06T04:26:18;16.10;99.90
9941;DHT22;5009;50.656;7.188;2023-08-06T04:28:43;16.10;99.90
9941;DHT22;5009;50.656;7.188;2023-08-06T04:31:09;16.10;99.90
9941;DHT22;5009;50.656;7.188;2023-08-06T04:33:34;16.20;99.90
9941;DHT22;5009;50.656;7.188;2023-08-06T04:36:00;16.20;99.90
9941;DHT22;5009;50.656;7.188;2023-08-06T04:38:26;16.20;99.90
9941;DHT22;5009;50.656;7.188;2023-08-06T04:40:52;16.20;99.90
9941;DHT22;5009;50.656;7.188;2023-08-06T04:43:18;16.20;99.90
9941;DHT22;5009;50.656;7.188;2023-08-06T04:45:50;16.20;99.90
9941;DHT22;5009;50.656;7.188;2023-08-06T04:48:15;16.10;99.90
9941;DHT22;5009;50.656;7.188;2023-08-06T04:50:45;16.20;99.90
9941;DHT22;5009;50.656;7.188;2023-08-06T04:53:10;16.10;99.90
9941;DHT22;5009;50.656;7.188;2023-08-06T04:55:36;16.10;99.90
9941;DHT22;5009;50.656;7.188;2023-08-06T04:58:02;16.00;99.90
9941;DHT22;5009;50.656;7.188;2023-08-06T05:00:27;16.10;99.90
9941;DHT22;5009;50.656;7.188;2023-08-06T05:02:53;16.10;99.90
9941;DHT22;5009;50.656;7.188;2023-08-06T05:05:18;16.00;99.90
9941;DHT22;5009;50.656;7.188;2023-08-06T05:07:48;16.00;99.90
9941;DHT22;5009;50.656;7.188;2023-08-06T05:10:13;16.00;99.90
9941;DHT22;5009;50.656;7.188;2023-08-06T05:12:39;16.00;99.90
9941;DHT22;5009;50.656;7.188;2023-08-06T05:15:05;16.00;99.90
9941;DHT22;5009;50.656;7.188;2023-08-06T05:17:30;16.00;99.90
9941;DHT22;5009;50.656;7.188;2023-08-06T05:19:56;16.00;99.90
9941;DHT22;5009;50.656;7.188;2023-08-06T05:22:21;16.00;99.90
9941;DHT22;5009;50.656;7.188;2023-08-06T05:24:47;16.00;99.90
9941;DHT22;5009;50.656;7.188;2023-08-06T05:27:13;16.10;99.90
9941;DHT22;5009;50.656;7.188;2023-08-06T05:29:38;16.10;99.90
9941;DHT22;5009;50.656;7.188;2023-08-06T05:32:04;16.00;99.90
9941;DHT22;5009;50.656;7.188;2023-08-06T05:34:29;16.00;99.90
9941;DHT22;5009;50.656;7.188;2023-08-06T05:36:55;16.00;99.90
9941;DHT22;5009;50.656;7.188;2023-08-06T05:39:21;16.00;99.90
9941;DHT22;5009;50.656;7.188;2023-08-06T05:41:46;16.00;99.90
9941;DHT22;5009;50.656;7.188;2023-08-06T05:44:12;15.90;99.90
9941;DHT22;5009;50.656;7.188;2023-08-06T05:46:37;16.00;99.90
9941;DHT22;5009;50.656;7.188;2023-08-06T05:49:03;16.10;99.90
9941;DHT22;5009;50.656;7.188;2023-08-06T05:51:29;16.10;99.90
9941;DHT22;5009;50.656;7.188;2023-08-06T05:53:54;16.20;99.90
9941;DHT22;5009;50.656;7.188;2023-08-06T05:56:20;16.30;99.90
9941;DHT22;5009;50.656;7.188;2023-08-06T05:58:45;16.40;99.90
9941;DHT22;5009;50.656;7.188;2023-08-06T06:01:13;16.30;99.90
9941;DHT22;5009;50.656;7.188;2023-08-06T06:03:38;16.30;99.90
9941;DHT22;5009;50.656;7.188;2023-08-06T06:06:04;16.40;99.90
9941;DHT22;5009;50.656;7.188;2023-08-06T06:08:29;16.50;99.90
9941;DHT22;5009;50.656;7.188;2023-08-06T06:10:55;16.50;99.90
9941;DHT22;5009;50.656;7.188;2023-08-06T06:13:21;16.60;99.90
9941;DHT22;5009;50.656;7.188;2023-08-06T06:15:46;16.50;99.90
9941;DHT22;5009;50.656;7.188;2023-08-06T06:18:13;16.50;99.90
9941;DHT22;5009;50.656;7.188;2023-08-06T06:20:38;16.50;99.90
9941;DHT22;5009;50.656;7.188;2023-08-06T06:23:04;16.40;99.90
9941;DHT22;5009;50.656;7.188;2023-08-06T06:25:29;16.40;99.90
9941;DHT22;5009;50.656;7.188;2023-08-06T06:27:55;16.40;99.90
9941;DHT22;5009;50.656;7.188;2023-08-06T06:30:20;16.50;99.90
9941;DHT22;5009;50.656;7.188;2023-08-06T06:32:47;16.50;99.90
9941;DHT22;5009;50.656;7.188;2023-08-06T06:35:12;16.50;99.90
9941;DHT22;5009;50.656;7.188;2023-08-06T06:37:38;16.60;99.90
9941;DHT22;5009;50.656;7.188;2023-08-06T06:40:04;16.60;99.90
9941;DHT22;5009;50.656;7.188;2023-08-06T06:42:29;16.60;99.90
9941;DHT22;5009;50.656;7.188;2023-08-06T06:44:55;16.60;99.90
9941;DHT22;5009;50.656;7.188;2023-08-06T06:47:20;16.60;99.90
9941;DHT22;5009;50.656;7.188;2023-08-06T06:49:46;16.70;99.90
9941;DHT22;5009;50.656;7.188;2023-08-06T06:52:12;16.80;99.90
9941;DHT22;5009;50.656;7.188;2023-08-06T06:54:37;16.80;99.90
9941;DHT22;5009;50.656;7.188;2023-08-06T06:57:03;16.90;99.90
9941;DHT22;5009;50.656;7.188;2023-08-06T06:59:29;16.90;99.90
9941;DHT22;5009;50.656;7.188;2023-08-06T07:01:55;17.00;99.90
9941;DHT22;5009;50.656;7.188;2023-08-06T07:04:21;17.10;99.90
9941;DHT22;5009;50.656;7.188;2023-08-06T07:06:47;17.20;99.90
9941;DHT22;5009;50.656;7.188;2023-08-06T07:09:13;17.30;99.90
9941;DHT22;5009;50.656;7.188;2023-08-06T07:11:38;17.40;99.90
9941;DHT22;5009;50.656;7.188;2023-08-06T07:14:04;17.50;99.90
9941;DHT22;5009;50.656;7.188;2023-08-06T07:16:29;17.60;99.90
9941;DHT22;5009;50.656;7.188;2023-08-06T07:18:55;17.70;99.90
9941;DHT22;5009;50.656;7.188;2023-08-06T07:21:21;17.80;99.90
9941;DHT22;5009;50.656;7.188;2023-08-06T07:23:47;17.90;99.90
9941;DHT22;5009;50.656;7.188;2023-08-06T07:26:15;17.90;99.90
9941;DHT22;5009;50.656;7.188;2023-08-06T07:28:40;17.80;99.90
9941;DHT22;5009;50.656;7.188;2023-08-06T07:31:06;17.80;99.90
9941;DHT22;5009;50.656;7.188;2023-08-06T07:33:31;17.90;99.90
9941;DHT22;5009;50.656;7.188;2023-08-06T07:35:57;17.90;99.90
9941;DHT22;5009;50.656;7.188;2023-08-06T07:38:22;17.90;99.90
9941;DHT22;5009;50.656;7.188;2023-08-06T07:40:48;17.80;99.90
9941;DHT22;5009;50.656;7.188;2023-08-06T07:43:14;17.90;99.90
9941;DHT22;5009;50.656;7.188;2023-08-06T07:45:43;18.10;99.90
9941;DHT22;5009;50.656;7.188;2023-08-06T07:48:09;18.20;99.90
9941;DHT22;5009;50.656;7.188;2023-08-06T07:50:34;18.10;99.90
9941;DHT22;5009;50.656;7.188;2023-08-06T07:53:00;18.20;99.90
9941;DHT22;5009;50.656;7.188;2023-08-06T07:55:26;18.20;99.90
9941;DHT22;5009;50.656;7.188;2023-08-06T07:57:51;18.20;99.90
9941;DHT22;5009;50.656;7.188;2023-08-06T08:00:17;18.20;99.90
9941;DHT22;5009;50.656;7.188;2023-08-06T08:02:42;18.20;99.90
9941;DHT22;5009;50.656;7.188;2023-08-06T08:05:08;18.10;99.90
9941;DHT22;5009;50.656;7.188;2023-08-06T08:07:34;18.30;99.90
9941;DHT22;5009;50.656;7.188;2023-08-06T08:09:59;18.40;99.90
9941;DHT22;5009;50.656;7.188;2023-08-06T08:12:25;18.40;99.90
9941;DHT22;5009;50.656;7.188;2023-08-06T08:14:51;18.50;99.90
9941;DHT22;5009;50.656;7.188;2023-08-06T08:17:16;18.60;99.90
9941;DHT22;5009;50.656;7.188;2023-08-06T08:19:42;18.70;99.90
9941;DHT22;5009;50.656;7.188;2023-08-06T08:22:07;18.70;99.90
9941;DHT22;5009;50.656;7.188;2023-08-06T08:24:34;18.80;99.90
9941;DHT22;5009;50.656;7.188;2023-08-06T08:27:00;18.80;99.90
9941;DHT22;5009;50.656;7.188;2023-08-06T08:29:25;18.80;99.90
9941;DHT22;5009;50.656;7.188;2023-08-06T08:31:51;18.90;99.90
9941;DHT22;5009;50.656;7.188;2023-08-06T08:34:17;19.00;99.90
9941;DHT22;5009;50.656;7.188;2023-08-06T08:36:43;19.00;99.90
9941;DHT22;5009;50.656;7.188;2023-08-06T08:39:12;19.00;99.90
9941;DHT22;5009;50.656;7.188;2023-08-06T08:41:38;19.00;99.90
9941;DHT22;5009;50.656;7.188;2023-08-06T08:44:07;19.00;99.90
9941;DHT22;5009;50.656;7.188;2023-08-06T08:46:36;19.10;99.90
9941;DHT22;5009;50.656;7.188;2023-08-06T08:49:02;19.10;99.90
9941;DHT22;5009;50.656;7.188;2023-08-06T08:51:28;19.20;99.90
9941;DHT22;5009;50.656;7.188;2023-08-06T08:53:55;19.30;99.90
9941;DHT22;5009;50.656;7.188;2023-08-06T08:56:24;19.30;99.90
9941;DHT22;5009;50.656;7.188;2023-08-06T08:58:50;19.30;99.90
9941;DHT22;5009;50.656;7.188;2023-08-06T09:01:18;19.20;99.90
9941;DHT22;5009;50.656;7.188;2023-08-06T09:03:44;19.20;99.90
9941;DHT22;5009;50.656;7.188;2023-08-06T09:06:11;19.20;99.90
9941;DHT22;5009;50.656;7.188;2023-08-06T09:08:41;19.20;99.90
9941;DHT22;5009;50.656;7.188;2023-08-06T09:11:09;19.10;99.90
9941;DHT22;5009;50.656;7.188;2023-08-06T09:13:37;19.10;99.90
9941;DHT22;5009;50.656;7.188;2023-08-06T09:16:04;19.10;99.90
9941;DHT22;5009;50.656;7.188;2023-08-06T09:18:30;19.10;99.90
9941;DHT22;5009;50.656;7.188;2023-08-06T09:20:57;19.20;99.90
9941;DHT22;5009;50.656;7.188;2023-08-06T09:23:30;19.20;99.90
9941;DHT22;5009;50.656;7.188;2023-08-06T09:25:56;19.10;99.90
9941;DHT22;5009;50.656;7.188;2023-08-06T09:28:22;19.10;99.90
9941;DHT22;5009;50.656;7.188;2023-08-06T09:30:49;19.10;99.90
9941;DHT22;5009;50.656;7.188;2023-08-06T09:33:19;19.00;99.90
9941;DHT22;5009;50.656;7.188;2023-08-06T09:35:46;18.80;99.90
9941;DHT22;5009;50.656;7.188;2023-08-06T09:38:12;18.60;99.90
9941;DHT22;5009;50.656;7.188;2023-08-06T09:40:39;18.70;99.90
9941;DHT22;5009;50.656;7.188;2023-08-06T09:43:05;18.80;99.90
9941;DHT22;5009;50.656;7.188;2023-08-06T09:45:32;18.90;99.90
9941;DHT22;5009;50.656;7.188;2023-08-06T09:47:59;18.90;99.90
9941;DHT22;5009;50.656;7.188;2023-08-06T09:50:33;18.80;99.90
9941;DHT22;5009;50.656;7.188;2023-08-06T09:53:01;18.70;99.90
9941;DHT22;5009;50.656;7.188;2023-08-06T09:55:27;18.50;99.90
9941;DHT22;5009;50.656;7.188;2023-08-06T09:57:53;18.50;99.90
9941;DHT22;5009;50.656;7.188;2023-08-06T10:00:19;18.50;99.90
9941;DHT22;5009;50.656;7.188;2023-08-06T10:02:45;18.20;99.90
9941;DHT22;5009;50.656;7.188;2023-08-06T10:05:11;18.00;99.90
9941;DHT22;5009;50.656;7.188;2023-08-06T10:07:37;18.00;99.90
9941;DHT22;5009;50.656;7.188;2023-08-06T10:10:05;18.00;99.90
9941;DHT22;5009;50.656;7.188;2023-08-06T10:12:34;18.00;99.90
9941;DHT22;5009;50.656;7.188;2023-08-06T10:15:04;18.10;99.90
9941;DHT22;5009;50.656;7.188;2023-08-06T10:17:32;18.10;99.90
9941;DHT22;5009;50.656;7.188;2023-08-06T10:19:59;18.00;99.90
9941;DHT22;5009;50.656;7.188;2023-08-06T10:22:24;17.90;99.90
9941;DHT22;5009;50.656;7.188;2023-08-06T10:24:54;17.80;99.90
9941;DHT22;5009;50.656;7.188;2023-08-06T10:29:54;17.60;99.90
9941;DHT22;5009;50.656;7.188;2023-08-06T10:32:20;17.60;99.90
9941;DHT22;5009;50.656;7.188;2023-08-06T10:34:57;17.60;99.90
9941;DHT22;5009;50.656;7.188;2023-08-06T10:37:36;17.50;99.90
9941;DHT22;5009;50.656;7.188;2023-08-06T10:40:02;17.40;99.90
9941;DHT22;5009;50.656;7.188;2023-08-06T10:42:29;17.30;99.90
9941;DHT22;5009;50.656;7.188;2023-08-06T10:45:14;17.30;99.90
9941;DHT22;5009;50.656;7.188;2023-08-06T10:47:44;17.30;99.90
9941;DHT22;5009;50.656;7.188;2023-08-06T10:50:17;17.40;99.90
9941;DHT22;5009;50.656;7.188;2023-08-06T10:52:46;17.40;99.90
9941;DHT22;5009;50.656;7.188;2023-08-06T10:55:12;17.40;99.90
9941;DHT22;5009;50.656;7.188;2023-08-06T10:57:38;17.40;99.90
9941;DHT22;5009;50.656;7.188;2023-08-06T11:00:05;17.30;99.90
9941;DHT22;5009;50.656;7.188;2023-08-06T11:02:36;17.20;99.90
9941;DHT22;5009;50.656;7.188;2023-08-06T11:05:08;17.10;99.90
9941;DHT22;5009;50.656;7.188;2023-08-06T11:07:35;17.10;99.90
9941;DHT22;5009;50.656;7.188;2023-08-06T11:10:05;17.10;99.90
9941;DHT22;5009;50.656;7.188;2023-08-06T11:12:32;17.20;99.90
9941;DHT22;5009;50.656;7.188;2023-08-06T11:14:57;17.10;99.90
9941;DHT22;5009;50.656;7.188;2023-08-06T11:17:23;17.20;99.90
9941;DHT22;5009;50.656;7.188;2023-08-06T11:19:49;17.00;99.90
9941;DHT22;5009;50.656;7.188;2023-08-06T11:22:16;17.00;99.90
9941;DHT22;5009;50.656;7.188;2023-08-06T11:24:42;17.00;99.90
9941;DHT22;5009;50.656;7.188;2023-08-06T11:27:15;17.00;99.90
9941;DHT22;5009;50.656;7.188;2023-08-06T11:29:42;17.10;99.90
9941;DHT22;5009;50.656;7.188;2023-08-06T11:32:11;17.30;99.90
9941;DHT22;5009;50.656;7.188;2023-08-06T11:34:38;17.30;99.90
9941;DHT22;5009;50.656;7.188;2023-08-06T11:37:04;17.40;99.90
9941;DHT22;5009;50.656;7.188;2023-08-06T11:39:34;17.30;99.90
9941;DHT22;5009;50.656;7.188;2023-08-06T11:42:02;17.30;99.90
9941;DHT22;5009;50.656;7.188;2023-08-06T11:44:30;17.30;99.90
9941;DHT22;5009;50.656;7.188;2023-08-06T11:47:00;17.40;99.90
9941;DHT22;5009;50.656;7.188;2023-08-06T11:49:46;17.40;99.90
9941;DHT22;5009;50.656;7.188;2023-08-06T11:52:24;17.50;99.90
9941;DHT22;5009;50.656;7.188;2023-08-06T11:55:00;17.40;99.90
9941;DHT22;5009;50.656;7.188;2023-08-06T11:57:29;17.30;99.90
9941;DHT22;5009;50.656;7.188;2023-08-06T12:00:01;17.20;99.90
9941;DHT22;5009;50.656;7.188;2023-08-06T12:02:27;17.10;99.90
9941;DHT22;5009;50.656;7.188;2023-08-06T12:05:13;16.90;99.90
9941;DHT22;5009;50.656;7.188;2023-08-06T12:07:44;16.90;99.90
9941;DHT22;5009;50.656;7.188;2023-08-06T12:10:09;16.90;99.90
9941;DHT22;5009;50.656;7.188;2023-08-06T12:12:36;16.80;99.90
9941;DHT22;5009;50.656;7.188;2023-08-06T12:15:04;16.80;99.90
9941;DHT22;5009;50.656;7.188;2023-08-06T12:17:29;16.70;99.90
9941;DHT22;5009;50.656;7.188;2023-08-06T12:19:55;16.70;99.90
9941;DHT22;5009;50.656;7.188;2023-08-06T12:22:21;16.70;99.90
9941;DHT22;5009;50.656;7.188;2023-08-06T12:24:47;16.80;99.90
9941;DHT22;5009;50.656;7.188;2023-08-06T12:27:13;16.80;99.90
9941;DHT22;5009;50.656;7.188;2023-08-06T12:29:44;16.70;99.90
9941;DHT22;5009;50.656;7.188;2023-08-06T12:32:11;16.70;99.90
9941;DHT22;5009;50.656;7.188;2023-08-06T12:34:38;16.70;99.90
9941;DHT22;5009;50.656;7.188;2023-08-06T12:37:03;16.70;99.90
9941;DHT22;5009;50.656;7.188;2023-08-06T12:39:29;16.70;99.90
9941;DHT22;5009;50.656;7.188;2023-08-06T12:41:56;16.70;99.90
9941;DHT22;5009;50.656;7.188;2023-08-06T12:44:23;16.70;99.90
9941;DHT22;5009;50.656;7.188;2023-08-06T12:46:50;16.70;99.90
9941;DHT22;5009;50.656;7.188;2023-08-06T12:49:16;16.70;99.90
9941;DHT22;5009;50.656;7.188;2023-08-06T12:51:42;16.70;99.90
9941;DHT22;5009;50.656;7.188;2023-08-06T12:54:08;16.70;99.90
9941;DHT22;5009;50.656;7.188;2023-08-06T12:56:34;16.70;99.90
9941;DHT22;5009;50.656;7.188;2023-08-06T12:59:00;16.70;99.90
9941;DHT22;5009;50.656;7.188;2023-08-06T13:01:25;16.80;99.90
9941;DHT22;5009;50.656;7.188;2023-08-06T13:03:51;16.90;99.90
9941;DHT22;5009;50.656;7.188;2023-08-06T13:06:17;16.90;99.90
9941;DHT22;5009;50.656;7.188;2023-08-06T13:08:42;17.00;99.90
9941;DHT22;5009;50.656;7.188;2023-08-06T13:11:08;17.00;99.90
9941;DHT22;5009;50.656;7.188;2023-08-06T13:13:34;17.10;99.90
9941;DHT22;5009;50.656;7.188;2023-08-06T13:15:59;17.10;99.90
9941;DHT22;5009;50.656;7.188;2023-08-06T13:18:25;17.10;99.90
9941;DHT22;5009;50.656;7.188;2023-08-06T13:20:53;17.10;99.90
9941;DHT22;5009;50.656;7.188;2023-08-06T13:23:20;17.10;99.90
9941;DHT22;5009;50.656;7.188;2023-08-06T13:25:45;17.10;99.90
9941;DHT22;5009;50.656;7.188;2023-08-06T13:28:11;17.10;99.90
9941;DHT22;5009;50.656;7.188;2023-08-06T13:30:36;17.00;99.90
9941;DHT22;5009;50.656;7.188;2023-08-06T13:33:07;17.00;99.90
9941;DHT22;5009;50.656;7.188;2023-08-06T13:35:33;17.00;99.90
9941;DHT22;5009;50.656;7.188;2023-08-06T13:37:58;17.00;99.90
9941;DHT22;5009;50.656;7.188;2023-08-06T13:40:24;17.10;99.90
9941;DHT22;5009;50.656;7.188;2023-08-06T13:42:50;17.00;99.90
9941;DHT22;5009;50.656;7.188;2023-08-06T13:45:15;16.90;99.90
9941;DHT22;5009;50.656;7.188;2023-08-06T13:47:41;16.90;99.90
9941;DHT22;5009;50.656;7.188;2023-08-06T13:50:07;16.80;99.90
9941;DHT22;5009;50.656;7.188;2023-08-06T13:52:33;16.80;99.90
9941;DHT22;5009;50.656;7.188;2023-08-06T13:55:01;16.80;99.90
9941;DHT22;5009;50.656;7.188;2023-08-06T13:57:29;16.80;99.90
9941;DHT22;5009;50.656;7.188;2023-08-06T13:59:54;16.80;99.90
9941;DHT22;5009;50.656;7.188;2023-08-06T14:02:20;16.80;99.90
9941;DHT22;5009;50.656;7.188;2023-08-06T14:04:46;16.80;99.90
9941;DHT22;5009;50.656;7.188;2023-08-06T14:07:11;16.80;99.90
9941;DHT22;5009;50.656;7.188;2023-08-06T14:09:37;16.90;99.90
9941;DHT22;5009;50.656;7.188;2023-08-06T14:12:02;17.00;99.90
9941;DHT22;5009;50.656;7.188;2023-08-06T14:14:28;17.00;99.90
9941;DHT22;5009;50.656;7.188;2023-08-06T14:16:54;17.10;99.90
9941;DHT22;5009;50.656;7.188;2023-08-06T14:19:20;17.20;99.90
9941;DHT22;5009;50.656;7.188;2023-08-06T14:21:46;17.10;99.90
9941;DHT22;5009;50.656;7.188;2023-08-06T14:24:11;17.10;99.90
9941;DHT22;5009;50.656;7.188;2023-08-06T14:26:37;17.00;99.90
9941;DHT22;5009;50.656;7.188;2023-08-06T14:29:03;17.00;99.90
9941;DHT22;5009;50.656;7.188;2023-08-06T14:31:29;17.10;99.90
9941;DHT22;5009;50.656;7.188;2023-08-06T14:33:54;17.10;99.90
9941;DHT22;5009;50.656;7.188;2023-08-06T14:36:20;17.20;99.90
9941;DHT22;5009;50.656;7.188;2023-08-06T14:38:46;17.20;99.90
9941;DHT22;5009;50.656;7.188;2023-08-06T14:41:11;17.30;99.90
9941;DHT22;5009;50.656;7.188;2023-08-06T14:43:37;17.20;99.90
9941;DHT22;5009;50.656;7.188;2023-08-06T14:46:02;17.30;99.90
9941;DHT22;5009;50.656;7.188;2023-08-06T14:48:29;17.30;99.90
9941;DHT22;5009;50.656;7.188;2023-08-06T14:50:55;17.30;99.90
9941;DHT22;5009;50.656;7.188;2023-08-06T14:53:21;17.40;99.90
9941;DHT22;5009;50.656;7.188;2023-08-06T14:55:46;17.50;99.90
9941;DHT22;5009;50.656;7.188;2023-08-06T14:58:12;17.60;99.90
9941;DHT22;5009;50.656;7.188;2023-08-06T15:00:37;17.70;99.90
9941;DHT22;5009;50.656;7.188;2023-08-06T15:03:03;17.70;99.90
9941;DHT22;5009;50.656;7.188;2023-08-06T15:05:28;17.80;99.90
9941;DHT22;5009;50.656;7.188;2023-08-06T15:07:54;17.90;99.90
9941;DHT22;5009;50.656;7.188;2023-08-06T15:10:20;17.90;99.90
9941;DHT22;5009;50.656;7.188;2023-08-06T15:12:46;17.90;99.90
9941;DHT22;5009;50.656;7.188;2023-08-06T15:15:11;17.70;99.90
9941;DHT22;5009;50.656;7.188;2023-08-06T15:17:37;17.60;99.90
9941;DHT22;5009;50.656;7.188;2023-08-06T15:20:03;17.50;99.90
9941;DHT22;5009;50.656;7.188;2023-08-06T15:22:29;17.50;99.90
9941;DHT22;5009;50.656;7.188;2023-08-06T15:25:01;17.50;99.90
9941;DHT22;5009;50.656;7.188;2023-08-06T15:27:28;17.40;99.90
9941;DHT22;5009;50.656;7.188;2023-08-06T15:29:53;17.40;99.90
9941;DHT22;5009;50.656;7.188;2023-08-06T15:32:19;17.20;99.90
9941;DHT22;5009;50.656;7.188;2023-08-06T15:34:46;17.10;99.90
9941;DHT22;5009;50.656;7.188;2023-08-06T15:37:12;17.10;99.90
9941;DHT22;5009;50.656;7.188;2023-08-06T15:39:38;17.10;99.90
9941;DHT22;5009;50.656;7.188;2023-08-06T15:42:04;17.20;99.90
9941;DHT22;5009;50.656;7.188;2023-08-06T15:44:30;17.30;99.90
9941;DHT22;5009;50.656;7.188;2023-08-06T15:46:56;17.30;99.90
9941;DHT22;5009;50.656;7.188;2023-08-06T15:49:22;17.40;99.90
9941;DHT22;5009;50.656;7.188;2023-08-06T15:51:48;17.30;99.90
9941;DHT22;5009;50.656;7.188;2023-08-06T15:54:14;17.40;99.90
9941;DHT22;5009;50.656;7.188;2023-08-06T15:56:39;17.30;99.90
9941;DHT22;5009;50.656;7.188;2023-08-06T16:01:47;17.30;99.90
9941;DHT22;5009;50.656;7.188;2023-08-06T16:04:12;17.30;99.90
9941;DHT22;5009;50.656;7.188;2023-08-06T16:06:38;17.40;99.90
9941;DHT22;5009;50.656;7.188;2023-08-06T16:09:04;17.40;99.90
9941;DHT22;5009;50.656;7.188;2023-08-06T16:11:29;17.50;99.90
9941;DHT22;5009;50.656;7.188;2023-08-06T16:13:55;17.40;99.90
9941;DHT22;5009;50.656;7.188;2023-08-06T16:16:20;17.40;99.90
9941;DHT22;5009;50.656;7.188;2023-08-06T16:18:46;17.40;99.90
9941;DHT22;5009;50.656;7.188;2023-08-06T16:21:11;17.30;99.90
9941;DHT22;5009;50.656;7.188;2023-08-06T16:23:37;17.20;99.90
9941;DHT22;5009;50.656;7.188;2023-08-06T16:26:04;17.10;99.90
9941;DHT22;5009;50.656;7.188;2023-08-06T16:28:29;17.00;99.90
9941;DHT22;5009;50.656;7.188;2023-08-06T16:30:55;17.00;99.90
9941;DHT22;5009;50.656;7.188;2023-08-06T16:33:21;16.90;99.90
9941;DHT22;5009;50.656;7.188;2023-08-06T16:35:46;16.80;99.90
9941;DHT22;5009;50.656;7.188;2023-08-06T16:38:13;16.80;99.90
9941;DHT22;5009;50.656;7.188;2023-08-06T16:40:38;16.80;99.90
9941;DHT22;5009;50.656;7.188;2023-08-06T16:43:04;16.70;99.90
9941;DHT22;5009;50.656;7.188;2023-08-06T16:45:30;16.70;99.90
9941;DHT22;5009;50.656;7.188;2023-08-06T16:47:56;16.70;99.90
9941;DHT22;5009;50.656;7.188;2023-08-06T16:50:22;16.70;99.90
9941;DHT22;5009;50.656;7.188;2023-08-06T16:52:48;16.60;99.90
9941;DHT22;5009;50.656;7.188;2023-08-06T16:55:13;16.60;99.90
9941;DHT22;5009;50.656;7.188;2023-08-06T16:57:40;16.60;99.90
9941;DHT22;5009;50.656;7.188;2023-08-06T17:00:06;16.60;99.90
9941;DHT22;5009;50.656;7.188;2023-08-06T17:02:32;16.50;99.90
9941;DHT22;5009;50.656;7.188;2023-08-06T17:04:58;16.40;99.90
9941;DHT22;5009;50.656;7.188;2023-08-06T17:07:23;16.40;99.90